sensor_id;sensor_type;location;lat;lon;timestamp;pressure;altitude;pressure_sealevel;temperature;humidity
21838;BME280;11081;45.946;6.140;2023-02-22T00:00:42;95081.25;;;9.08;71.90
21838;BME280;11081;45.946;6.140;2023-02-22T00:03:13;95085.22;;;9.10;72.24
21838;BME280;11081;45.946;6.140;2023-02-22T00:05:42;95090.84;;;9.07;72.36
21838;BME280;11081;45.946;6.140;2023-02-22T00:08:13;95094.31;;;9.01;72.55
21838;BME280;11081;45.946;6.140;2023-02-22T00:10:42;95093.56;;;8.94;72.40
21838;BME280;11081;45.946;6.140;2023-02-22T00:13:12;95092.75;;;8.94;72.05
21838;BME280;11081;45.946;6.140;2023-02-22T00:15:41;95094.78;;;8.92;73.12
21838;BME280;11081;45.946;6.140;2023-02-22T00:18:13;95092.81;;;8.87;72.41
21838;BME280;11081;45.946;6.140;2023-02-22T00:20:41;95084.41;;;8.85;72.87
21838;BME280;11081;45.946;6.140;2023-02-22T00:23:13;95088.19;;;8.89;72.83
21838;BME280;11081;45.946;6.140;2023-02-22T00:25:41;95091.16;;;8.93;73.17
21838;BME280;11081;45.946;6.140;2023-02-22T00:28:09;95088.78;;;8.91;72.97
21838;BME280;11081;45.946;6.140;2023-02-22T00:30:37;95087.59;;;8.87;73.21
21838;BME280;11081;45.946;6.140;2023-02-22T00:33:10;95089.63;;;8.85;72.97
21838;BME280;11081;45.946;6.140;2023-02-22T00:35:40;95085.28;;;8.79;73.17
21838;BME280;11081;45.946;6.140;2023-02-22T00:38:12;95090.47;;;8.79;73.29
21838;BME280;11081;45.946;6.140;2023-02-22T00:40:41;95087.66;;;8.80;73.42
21838;BME280;11081;45.946;6.140;2023-02-22T00:43:11;95081.66;;;8.80;73.31
21838;BME280;11081;45.946;6.140;2023-02-22T00:45:39;95084.84;;;8.82;73.15
21838;BME280;11081;45.946;6.140;2023-02-22T00:48:08;95083.25;;;8.81;73.18
21838;BME280;11081;45.946;6.140;2023-02-22T00:50:36;95095.25;;;8.82;72.57
21838;BME280;11081;45.946;6.140;2023-02-22T00:53:06;95092.88;;;8.80;73.25
21838;BME280;11081;45.946;6.140;2023-02-22T00:55:36;95087.28;;;8.77;73.40
21838;BME280;11081;45.946;6.140;2023-02-22T00:58:04;95084.50;;;8.72;73.39
21838;BME280;11081;45.946;6.140;2023-02-22T01:00:36;95088.53;;;8.68;73.52
21838;BME280;11081;45.946;6.140;2023-02-22T01:03:05;95083.75;;;8.65;73.03
21838;BME280;11081;45.946;6.140;2023-02-22T01:05:33;95089.38;;;8.62;73.60
21838;BME280;11081;45.946;6.140;2023-02-22T01:08:04;95086.78;;;8.62;73.06
21838;BME280;11081;45.946;6.140;2023-02-22T01:10:36;95084.19;;;8.62;73.07
21838;BME280;11081;45.946;6.140;2023-02-22T01:13:06;95083.00;;;8.58;73.25
21838;BME280;11081;45.946;6.140;2023-02-22T01:15:40;95090.22;;;8.55;74.26
21838;BME280;11081;45.946;6.140;2023-02-22T01:18:11;95089.44;;;8.48;73.81
21838;BME280;11081;45.946;6.140;2023-02-22T01:20:43;95085.03;;;8.49;73.73
21838;BME280;11081;45.946;6.140;2023-02-22T01:23:14;95087.84;;;8.47;73.90
21838;BME280;11081;45.946;6.140;2023-02-22T01:25:44;95081.09;;;8.40;73.51
21838;BME280;11081;45.946;6.140;2023-02-22T01:28:13;95085.13;;;8.36;73.73
21838;BME280;11081;45.946;6.140;2023-02-22T01:30:41;95089.13;;;8.38;74.04
21838;BME280;11081;45.946;6.140;2023-02-22T01:33:09;95081.13;;;8.33;74.03
21838;BME280;11081;45.946;6.140;2023-02-22T01:35:38;95085.94;;;8.36;73.95
21838;BME280;11081;45.946;6.140;2023-02-22T01:38:07;95085.50;;;8.39;74.01
21838;BME280;11081;45.946;6.140;2023-02-22T01:40:37;95088.09;;;8.39;73.55
21838;BME280;11081;45.946;6.140;2023-02-22T01:43:17;95080.72;;;8.36;73.61
21838;BME280;11081;45.946;6.140;2023-02-22T01:45:54;95079.91;;;8.29;74.12
21838;BME280;11081;45.946;6.140;2023-02-22T01:48:35;95078.75;;;8.25;74.62
21838;BME280;11081;45.946;6.140;2023-02-22T01:51:08;95074.75;;;8.22;74.54
21838;BME280;11081;45.946;6.140;2023-02-22T01:53:42;95078.53;;;8.26;74.82
21838;BME280;11081;45.946;6.140;2023-02-22T01:56:13;95073.13;;;8.28;74.74
21838;BME280;11081;45.946;6.140;2023-02-22T01:58:45;95073.91;;;8.29;75.89
21838;BME280;11081;45.946;6.140;2023-02-22T02:01:18;95077.91;;;8.31;76.07
21838;BME280;11081;45.946;6.140;2023-02-22T02:03:46;95072.34;;;8.34;75.72
21838;BME280;11081;45.946;6.140;2023-02-22T02:06:16;95074.72;;;8.36;76.26
21838;BME280;11081;45.946;6.140;2023-02-22T02:08:50;95076.31;;;8.37;75.91
21838;BME280;11081;45.946;6.140;2023-02-22T02:11:23;95074.28;;;8.32;76.25
21838;BME280;11081;45.946;6.140;2023-02-22T02:13:56;95073.19;;;8.15;77.30
21838;BME280;11081;45.946;6.140;2023-02-22T02:16:33;95068.75;;;8.22;77.00
21838;BME280;11081;45.946;6.140;2023-02-22T02:19:03;95062.72;;;8.28;76.98
21838;BME280;11081;45.946;6.140;2023-02-22T02:21:53;95060.72;;;8.30;76.92
21838;BME280;11081;45.946;6.140;2023-02-22T02:28:11;95061.56;;;8.24;78.09
21838;BME280;11081;45.946;6.140;2023-02-22T02:31:05;95060.38;;;8.20;78.65
21838;BME280;11081;45.946;6.140;2023-02-22T02:33:43;95058.38;;;8.22;78.07
21838;BME280;11081;45.946;6.140;2023-02-22T02:36:19;95058.38;;;8.22;78.42
21838;BME280;11081;45.946;6.140;2023-02-22T02:38:56;95054.34;;;8.26;78.27
21838;BME280;11081;45.946;6.140;2023-02-22T02:41:28;95053.97;;;8.22;78.21
21838;BME280;11081;45.946;6.140;2023-02-22T02:44:00;95052.78;;;8.18;78.27
21838;BME280;11081;45.946;6.140;2023-02-22T02:46:33;95043.59;;;8.16;78.82
21838;BME280;11081;45.946;6.140;2023-02-22T02:49:07;95052.00;;;8.18;78.19
21838;BME280;11081;45.946;6.140;2023-02-22T02:51:40;95044.41;;;8.16;78.22
21838;BME280;11081;45.946;6.140;2023-02-22T02:54:10;95042.59;;;8.17;78.55
21838;BME280;11081;45.946;6.140;2023-02-22T02:56:40;95039.41;;;8.15;78.51
21838;BME280;11081;45.946;6.140;2023-02-22T02:59:23;95038.03;;;8.12;79.06
21838;BME280;11081;45.946;6.140;2023-02-22T03:02:00;95040.41;;;8.14;79.16
21838;BME280;11081;45.946;6.140;2023-02-22T03:04:51;95043.59;;;8.16;79.58
21838;BME280;11081;45.946;6.140;2023-02-22T03:07:46;95050.63;;;8.09;79.81
21838;BME280;11081;45.946;6.140;2023-02-22T03:10:27;95040.81;;;8.11;79.93
21838;BME280;11081;45.946;6.140;2023-02-22T03:13:10;95050.03;;;8.13;79.53
21838;BME280;11081;45.946;6.140;2023-02-22T03:15:48;95054.91;;;7.90;78.69
21838;BME280;11081;45.946;6.140;2023-02-22T03:18:24;95054.94;;;7.83;79.22
21838;BME280;11081;45.946;6.140;2023-02-22T03:21:00;95052.53;;;7.82;79.39
21838;BME280;11081;45.946;6.140;2023-02-22T03:23:34;95046.16;;;7.78;78.78
21838;BME280;11081;45.946;6.140;2023-02-22T03:26:07;95051.75;;;7.81;79.42
21838;BME280;11081;45.946;6.140;2023-02-22T03:28:39;95049.56;;;7.78;79.21
21838;BME280;11081;45.946;6.140;2023-02-22T03:31:12;95048.97;;;7.76;79.49
21838;BME280;11081;45.946;6.140;2023-02-22T03:33:45;95048.97;;;7.76;79.91
21838;BME280;11081;45.946;6.140;2023-02-22T03:36:19;95042.94;;;7.82;79.92
21838;BME280;11081;45.946;6.140;2023-02-22T03:38:53;95041.53;;;7.86;79.87
21838;BME280;11081;45.946;6.140;2023-02-22T03:41:25;95046.13;;;7.84;80.33
21838;BME280;11081;45.946;6.140;2023-02-22T03:43:57;95058.13;;;7.85;80.80
21838;BME280;11081;45.946;6.140;2023-02-22T03:46:27;95047.72;;;7.85;80.84
21838;BME280;11081;45.946;6.140;2023-02-22T03:48:58;95052.91;;;7.85;81.06
21838;BME280;11081;45.946;6.140;2023-02-22T03:51:36;95051.91;;;7.86;80.98
21838;BME280;11081;45.946;6.140;2023-02-22T03:54:06;95051.31;;;7.84;80.99
21838;BME280;11081;45.946;6.140;2023-02-22T03:56:38;95059.13;;;7.84;81.18
21838;BME280;11081;45.946;6.140;2023-02-22T03:59:13;95054.13;;;7.83;81.15
21838;BME280;11081;45.946;6.140;2023-02-22T04:01:42;95058.94;;;7.79;81.81
21838;BME280;11081;45.946;6.140;2023-02-22T04:04:10;95054.16;;;7.76;82.05
21838;BME280;11081;45.946;6.140;2023-02-22T04:06:40;95044.19;;;7.73;82.54
21838;BME280;11081;45.946;6.140;2023-02-22T04:09:08;95034.19;;;7.70;82.92
21838;BME280;11081;45.946;6.140;2023-02-22T04:11:36;95041.38;;;7.68;83.41
21838;BME280;11081;45.946;6.140;2023-02-22T04:14:04;95035.81;;;7.71;83.62
21838;BME280;11081;45.946;6.140;2023-02-22T04:16:33;95038.59;;;7.76;83.28
21838;BME280;11081;45.946;6.140;2023-02-22T04:19:03;95031.38;;;7.78;83.27
21838;BME280;11081;45.946;6.140;2023-02-22T04:21:33;95034.56;;;7.80;83.54
21838;BME280;11081;45.946;6.140;2023-02-22T04:24:04;95032.16;;;7.79;83.48
21838;BME280;11081;45.946;6.140;2023-02-22T04:26:32;95042.34;;;7.80;83.00
21838;BME280;11081;45.946;6.140;2023-02-22T04:29:02;95040.13;;;7.84;83.37
21838;BME280;11081;45.946;6.140;2023-02-22T04:31:37;95042.94;;;7.82;83.46
21838;BME280;11081;45.946;6.140;2023-02-22T04:34:05;95043.78;;;7.76;83.63
21838;BME280;11081;45.946;6.140;2023-02-22T04:36:37;95041.00;;;7.71;83.61
21838;BME280;11081;45.946;6.140;2023-02-22T04:39:09;95041.00;;;7.71;83.32
21838;BME280;11081;45.946;6.140;2023-02-22T04:41:37;95041.38;;;7.68;83.23
21838;BME280;11081;45.946;6.140;2023-02-22T04:44:06;95044.78;;;7.69;83.71
21838;BME280;11081;45.946;6.140;2023-02-22T04:46:34;95043.81;;;7.63;83.18
21838;BME280;11081;45.946;6.140;2023-02-22T04:49:02;95042.25;;;7.55;82.57
21838;BME280;11081;45.946;6.140;2023-02-22T04:51:34;95043.06;;;7.43;82.32
21838;BME280;11081;45.946;6.140;2023-02-22T04:54:07;95039.50;;;7.30;82.26
21838;BME280;11081;45.946;6.140;2023-02-22T04:56:41;95038.09;;;7.34;82.42
21838;BME280;11081;45.946;6.140;2023-02-22T04:59:09;95039.47;;;7.44;82.61
21838;BME280;11081;45.946;6.140;2023-02-22T05:01:41;95045.84;;;7.48;83.15
21838;BME280;11081;45.946;6.140;2023-02-22T05:04:09;95039.88;;;7.41;81.83
21838;BME280;11081;45.946;6.140;2023-02-22T05:06:37;95039.13;;;7.20;82.99
21838;BME280;11081;45.946;6.140;2023-02-22T05:09:05;95042.31;;;7.16;82.71
21838;BME280;11081;45.946;6.140;2023-02-22T05:11:33;95052.91;;;7.01;82.48
21838;BME280;11081;45.946;6.140;2023-02-22T05:14:02;95051.50;;;6.79;82.45
21838;BME280;11081;45.946;6.140;2023-02-22T05:16:30;95049.13;;;6.70;82.88
21838;BME280;11081;45.946;6.140;2023-02-22T05:18:58;95046.72;;;6.76;82.01
21838;BME280;11081;45.946;6.140;2023-02-22T05:21:26;95055.91;;;6.85;82.24
21838;BME280;11081;45.946;6.140;2023-02-22T05:23:54;95045.94;;;6.95;82.71
21838;BME280;11081;45.946;6.140;2023-02-22T05:26:23;95054.69;;;7.07;81.96
21838;BME280;11081;45.946;6.140;2023-02-22T05:28:51;95056.91;;;7.10;81.62
21838;BME280;11081;45.946;6.140;2023-02-22T05:31:20;95053.09;;;7.06;81.09
21838;BME280;11081;45.946;6.140;2023-02-22T05:33:48;95046.72;;;7.02;81.55
21838;BME280;11081;45.946;6.140;2023-02-22T05:36:16;95055.09;;;7.04;82.16
21838;BME280;11081;45.946;6.140;2023-02-22T05:38:44;95054.31;;;7.10;82.53
21838;BME280;11081;45.946;6.140;2023-02-22T05:41:12;95045.72;;;7.16;82.49
21838;BME280;11081;45.946;6.140;2023-02-22T05:43:41;95041.91;;;7.19;83.18
21838;BME280;11081;45.946;6.140;2023-02-22T05:46:09;95038.72;;;7.17;82.93
21838;BME280;11081;45.946;6.140;2023-02-22T05:48:38;95042.31;;;7.22;83.54
21838;BME280;11081;45.946;6.140;2023-02-22T05:51:06;95047.09;;;7.25;83.41
21838;BME280;11081;45.946;6.140;2023-02-22T05:53:35;95047.09;;;7.25;83.54
21838;BME280;11081;45.946;6.140;2023-02-22T05:56:04;95050.28;;;7.27;83.28
21838;BME280;11081;45.946;6.140;2023-02-22T05:58:32;95047.50;;;7.29;83.19
21838;BME280;11081;45.946;6.140;2023-02-22T06:01:00;95049.91;;;7.30;82.95
21838;BME280;11081;45.946;6.140;2023-02-22T06:03:29;95050.88;;;7.36;82.56
21838;BME280;11081;45.946;6.140;2023-02-22T06:05:58;95052.69;;;7.36;82.59
21838;BME280;11081;45.946;6.140;2023-02-22T06:08:26;95056.69;;;7.31;82.79
21838;BME280;11081;45.946;6.140;2023-02-22T06:10:54;95055.69;;;7.32;82.94
21838;BME280;11081;45.946;6.140;2023-02-22T06:13:22;95049.91;;;7.30;83.22
21838;BME280;11081;45.946;6.140;2023-02-22T06:15:50;95051.88;;;7.28;83.21
21838;BME280;11081;45.946;6.140;2023-02-22T06:18:18;95060.66;;;7.27;83.18
21838;BME280;11081;45.946;6.140;2023-02-22T06:20:46;95055.47;;;7.21;83.54
21838;BME280;11081;45.946;6.140;2023-02-22T06:23:15;95056.28;;;7.21;83.54
21838;BME280;11081;45.946;6.140;2023-02-22T06:25:43;95055.47;;;7.21;83.81
21838;BME280;11081;45.946;6.140;2023-02-22T06:28:11;95067.84;;;7.25;84.37
21838;BME280;11081;45.946;6.140;2023-02-22T06:30:40;95067.84;;;7.25;84.38
21838;BME280;11081;45.946;6.140;2023-02-22T06:33:09;95055.09;;;7.30;84.61
21838;BME280;11081;45.946;6.140;2023-02-22T06:35:37;95068.66;;;7.32;85.59
21838;BME280;11081;45.946;6.140;2023-02-22T06:38:05;95065.66;;;7.36;85.72
21838;BME280;11081;45.946;6.140;2023-02-22T06:40:34;95073.41;;;7.49;86.20
21838;BME280;11081;45.946;6.140;2023-02-22T06:43:02;95074.59;;;7.59;85.73
21838;BME280;11081;45.946;6.140;2023-02-22T06:45:30;95071.38;;;7.71;85.68
21838;BME280;11081;45.946;6.140;2023-02-22T06:47:58;95078.56;;;7.75;85.84
21838;BME280;11081;45.946;6.140;2023-02-22T06:50:28;95070.94;;;7.80;86.57
21838;BME280;11081;45.946;6.140;2023-02-22T06:52:57;95084.50;;;7.82;86.69
21838;BME280;11081;45.946;6.140;2023-02-22T06:55:27;95085.69;;;7.86;86.93
21838;BME280;11081;45.946;6.140;2023-02-22T06:57:57;95088.09;;;7.94;86.79
21838;BME280;11081;45.946;6.140;2023-02-22T07:00:27;95094.13;;;7.75;86.53
21838;BME280;11081;45.946;6.140;2023-02-22T07:02:56;95094.41;;;7.41;85.71
21838;BME280;11081;45.946;6.140;2023-02-22T07:05:25;95081.81;;;7.38;86.40
21838;BME280;11081;45.946;6.140;2023-02-22T07:07:59;95088.19;;;7.55;87.06
21838;BME280;11081;45.946;6.140;2023-02-22T07:10:30;95091.94;;;7.72;87.55
21838;BME280;11081;45.946;6.140;2023-02-22T07:13:00;95095.50;;;7.84;87.13
21838;BME280;11081;45.946;6.140;2023-02-22T07:15:29;95093.28;;;7.94;86.92
21838;BME280;11081;45.946;6.140;2023-02-22T07:17:58;95092.03;;;8.04;86.96
21838;BME280;11081;45.946;6.140;2023-02-22T07:20:27;95097.59;;;8.14;86.48
21838;BME280;11081;45.946;6.140;2023-02-22T07:22:56;95095.94;;;8.26;86.60
21838;BME280;11081;45.946;6.140;2023-02-22T07:25:24;95105.06;;;8.48;86.15
21838;BME280;11081;45.946;6.140;2023-02-22T07:27:52;95109.41;;;8.61;85.44
21838;BME280;11081;45.946;6.140;2023-02-22T07:30:23;95111.78;;;8.63;83.30
21838;BME280;11081;45.946;6.140;2023-02-22T07:32:52;95111.59;;;8.13;82.51
21838;BME280;11081;45.946;6.140;2023-02-22T07:35:23;95112.47;;;7.93;82.58
21838;BME280;11081;45.946;6.140;2023-02-22T07:37:52;95110.13;;;7.72;82.33
21838;BME280;11081;45.946;6.140;2023-02-22T07:40:23;95106.97;;;7.57;82.18
21838;BME280;11081;45.946;6.140;2023-02-22T07:42:56;95110.56;;;7.56;82.02
21838;BME280;11081;45.946;6.140;2023-02-22T07:45:27;95108.91;;;7.75;81.62
21838;BME280;11081;45.946;6.140;2023-02-22T07:47:56;95102.47;;;7.97;80.32
21838;BME280;11081;45.946;6.140;2023-02-22T07:50:26;95109.44;;;8.03;79.84
21838;BME280;11081;45.946;6.140;2023-02-22T07:52:57;95107.22;;;8.07;79.17
21838;BME280;11081;45.946;6.140;2023-02-22T07:55:27;95108.59;;;8.16;79.82
21838;BME280;11081;45.946;6.140;2023-02-22T07:57:57;95110.31;;;8.29;79.89
21838;BME280;11081;45.946;6.140;2023-02-22T08:00:28;95107.13;;;8.33;79.64
21838;BME280;11081;45.946;6.140;2023-02-22T08:02:58;95110.34;;;8.35;80.13
21838;BME280;11081;45.946;6.140;2023-02-22T08:05:28;95111.50;;;8.39;80.37
21838;BME280;11081;45.946;6.140;2023-02-22T08:07:56;95106.28;;;8.46;80.62
21838;BME280;11081;45.946;6.140;2023-02-22T08:10:25;95118.22;;;8.53;80.22
21838;BME280;11081;45.946;6.140;2023-02-22T08:12:55;95113.75;;;8.67;79.76
21838;BME280;11081;45.946;6.140;2023-02-22T08:15:25;95116.91;;;8.76;79.61
21838;BME280;11081;45.946;6.140;2023-02-22T08:17:57;95115.66;;;8.85;78.59
21838;BME280;11081;45.946;6.140;2023-02-22T08:20:27;95117.97;;;8.93;79.09
21838;BME280;11081;45.946;6.140;2023-02-22T08:22:56;95120.78;;;8.98;79.32
21838;BME280;11081;45.946;6.140;2023-02-22T08:25:27;95117.31;;;9.04;78.87
21838;BME280;11081;45.946;6.140;2023-02-22T08:27:56;95124.28;;;9.10;79.01
21838;BME280;11081;45.946;6.140;2023-02-22T08:30:28;95120.44;;;9.13;79.76
21838;BME280;11081;45.946;6.140;2023-02-22T08:32:58;95115.00;;;9.21;79.51
21838;BME280;11081;45.946;6.140;2023-02-22T08:35:29;95118.97;;;9.24;79.75
21838;BME280;11081;45.946;6.140;2023-02-22T08:38:00;95112.91;;;9.30;78.98
21838;BME280;11081;45.946;6.140;2023-02-22T08:40:31;95111.03;;;9.37;78.96
21838;BME280;11081;45.946;6.140;2023-02-22T08:43:00;95107.59;;;9.43;78.00
21838;BME280;11081;45.946;6.140;2023-02-22T08:45:28;95106.00;;;9.42;78.45
21838;BME280;11081;45.946;6.140;2023-02-22T08:47:58;95108.44;;;9.37;79.87
21838;BME280;11081;45.946;6.140;2023-02-22T08:50:27;95111.84;;;9.12;80.26
21838;BME280;11081;45.946;6.140;2023-02-22T08:52:58;95111.59;;;8.96;81.81
21838;BME280;11081;45.946;6.140;2023-02-22T08:55:28;95116.81;;;8.89;82.12
21838;BME280;11081;45.946;6.140;2023-02-22T08:57:58;95106.53;;;8.69;83.32
21838;BME280;11081;45.946;6.140;2023-02-22T09:00:27;95119.75;;;8.68;83.56
21838;BME280;11081;45.946;6.140;2023-02-22T09:03:00;95116.06;;;8.82;83.11
21838;BME280;11081;45.946;6.140;2023-02-22T09:05:29;95116.72;;;9.02;82.60
21838;BME280;11081;45.946;6.140;2023-02-22T09:07:58;95118.97;;;9.24;81.53
21838;BME280;11081;45.946;6.140;2023-02-22T09:10:28;95119.34;;;9.27;80.73
21838;BME280;11081;45.946;6.140;2023-02-22T09:12:56;95112.31;;;9.28;80.92
21838;BME280;11081;45.946;6.140;2023-02-22T09:15:27;95119.59;;;9.44;79.12
21838;BME280;11081;45.946;6.140;2023-02-22T09:17:55;95114.25;;;9.39;79.29
21838;BME280;11081;45.946;6.140;2023-02-22T09:20:25;95109.19;;;9.44;79.36
21838;BME280;11081;45.946;6.140;2023-02-22T09:22:54;95119.31;;;9.52;78.83
21838;BME280;11081;45.946;6.140;2023-02-22T09:25:22;95117.03;;;9.62;78.46
21838;BME280;11081;45.946;6.140;2023-02-22T09:27:51;95113.84;;;9.60;78.43
21838;BME280;11081;45.946;6.140;2023-02-22T09:30:24;95115.81;;;9.65;77.96
21838;BME280;11081;45.946;6.140;2023-02-22T09:32:54;95110.97;;;9.68;78.25
21838;BME280;11081;45.946;6.140;2023-02-22T09:35:26;95107.34;;;9.69;78.34
21838;BME280;11081;45.946;6.140;2023-02-22T09:37:55;95111.09;;;9.73;78.13
21838;BME280;11081;45.946;6.140;2023-02-22T09:40:23;95114.88;;;9.77;77.96
21838;BME280;11081;45.946;6.140;2023-02-22T09:43:07;95109.25;;;9.81;77.13
21838;BME280;11081;45.946;6.140;2023-02-22T09:45:50;95112.88;;;9.80;77.47
21838;BME280;11081;45.946;6.140;2023-02-22T09:48:23;95109.53;;;9.91;77.96
21838;BME280;11081;45.946;6.140;2023-02-22T09:50:56;95113.00;;;10.03;77.05
21838;BME280;11081;45.946;6.140;2023-02-22T09:53:29;95106.47;;;10.12;76.00
21838;BME280;11081;45.946;6.140;2023-02-22T09:56:00;95113.84;;;10.15;76.43
21838;BME280;11081;45.946;6.140;2023-02-22T09:58:33;95115.81;;;10.20;75.87
21838;BME280;11081;45.946;6.140;2023-02-22T10:01:12;95115.66;;;10.21;76.35
21838;BME280;11081;45.946;6.140;2023-02-22T10:03:48;95105.91;;;10.28;76.97
21838;BME280;11081;45.946;6.140;2023-02-22T10:06:22;95116.25;;;10.35;76.91
21838;BME280;11081;45.946;6.140;2023-02-22T10:08:52;95110.97;;;10.42;76.07
21838;BME280;11081;45.946;6.140;2023-02-22T10:11:34;95109.66;;;10.51;76.61
21838;BME280;11081;45.946;6.140;2023-02-22T10:14:22;95111.94;;;10.59;75.88
21838;BME280;11081;45.946;6.140;2023-02-22T10:16:57;95109.91;;;10.61;75.90
21838;BME280;11081;45.946;6.140;2023-02-22T10:19:32;95101.38;;;10.54;76.97
21838;BME280;11081;45.946;6.140;2023-02-22T10:22:38;95104.59;;;10.37;77.89
21838;BME280;11081;45.946;6.140;2023-02-22T10:25:10;95113.38;;;10.43;77.67
21838;BME280;11081;45.946;6.140;2023-02-22T10:27:43;95108.50;;;10.47;77.35
21838;BME280;11081;45.946;6.140;2023-02-22T10:30:19;95106.56;;;10.42;77.40
21838;BME280;11081;45.946;6.140;2023-02-22T10:32:54;95107.72;;;10.46;77.26
21838;BME280;11081;45.946;6.140;2023-02-22T10:35:27;95107.97;;;10.56;77.56
21838;BME280;11081;45.946;6.140;2023-02-22T10:37:58;95109.91;;;10.61;76.36
21838;BME280;11081;45.946;6.140;2023-02-22T10:40:31;95110.19;;;10.71;76.47
21838;BME280;11081;45.946;6.140;2023-02-22T10:43:03;95109.91;;;10.61;76.63
21838;BME280;11081;45.946;6.140;2023-02-22T10:45:33;95110.69;;;10.61;76.64
21838;BME280;11081;45.946;6.140;2023-02-22T10:48:04;95110.28;;;10.64;76.04
21838;BME280;11081;45.946;6.140;2023-02-22T10:50:39;95107.63;;;10.53;77.44
21838;BME280;11081;45.946;6.140;2023-02-22T10:53:10;95106.72;;;10.59;77.80
21838;BME280;11081;45.946;6.140;2023-02-22T10:56:04;95108.31;;;10.60;76.76
21838;BME280;11081;45.946;6.140;2023-02-22T10:58:43;95110.63;;;10.68;77.05
21838;BME280;11081;45.946;6.140;2023-02-22T11:01:20;95111.31;;;10.75;76.58
21838;BME280;11081;45.946;6.140;2023-02-22T11:04:00;95101.22;;;10.67;76.81
21838;BME280;11081;45.946;6.140;2023-02-22T11:06:31;95101.31;;;10.72;75.96
21838;BME280;11081;45.946;6.140;2023-02-22T11:09:12;95103.63;;;10.80;76.58
21838;BME280;11081;45.946;6.140;2023-02-22T11:11:43;95105.94;;;10.88;76.02
21838;BME280;11081;45.946;6.140;2023-02-22T11:14:13;95106.78;;;10.82;76.43
21838;BME280;11081;45.946;6.140;2023-02-22T11:16:52;95094.97;;;10.68;77.13
21838;BME280;11081;45.946;6.140;2023-02-22T11:19:25;95094.25;;;10.61;78.29
21838;BME280;11081;45.946;6.140;2023-02-22T11:21:57;95085.44;;;10.62;77.78
21838;BME280;11081;45.946;6.140;2023-02-22T11:24:27;95086.69;;;10.71;77.44
21838;BME280;11081;45.946;6.140;2023-02-22T11:27:23;95079.31;;;10.68;78.02
21838;BME280;11081;45.946;6.140;2023-02-22T11:29:53;95074.78;;;10.75;77.71
21838;BME280;11081;45.946;6.140;2023-02-22T11:32:25;95066.66;;;10.83;77.09
21838;BME280;11081;45.946;6.140;2023-02-22T11:35:17;95065.28;;;10.92;76.18
21838;BME280;11081;45.946;6.140;2023-02-22T11:37:46;95074.38;;;11.02;76.47
21838;BME280;11081;45.946;6.140;2023-02-22T11:40:17;95067.72;;;11.06;76.58
21838;BME280;11081;45.946;6.140;2023-02-22T11:42:49;95061.56;;;11.12;76.50
21838;BME280;11081;45.946;6.140;2023-02-22T11:45:33;95052.47;;;11.14;77.00
21838;BME280;11081;45.946;6.140;2023-02-22T11:48:05;95057.03;;;11.19;77.00
21838;BME280;11081;45.946;6.140;2023-02-22T11:50:40;95052.34;;;10.97;77.72
21838;BME280;11081;45.946;6.140;2023-02-22T11:53:24;95045.75;;;10.83;76.98
21838;BME280;11081;45.946;6.140;2023-02-22T11:56:06;95044.41;;;10.92;77.59
21838;BME280;11081;45.946;6.140;2023-02-22T11:58:42;95044.63;;;11.03;76.49
21838;BME280;11081;45.946;6.140;2023-02-22T12:01:18;95042.34;;;10.94;77.66
21838;BME280;11081;45.946;6.140;2023-02-22T12:04:25;95035.31;;;10.83;78.71
21838;BME280;11081;45.946;6.140;2023-02-22T12:07:10;95037.34;;;10.81;78.80
21838;BME280;11081;45.946;6.140;2023-02-22T12:09:43;95041.09;;;10.85;78.14
21838;BME280;11081;45.946;6.140;2023-02-22T12:12:20;95027.16;;;10.91;78.30
21838;BME280;11081;45.946;6.140;2023-02-22T12:14:58;95024.19;;;10.99;78.36
21838;BME280;11081;45.946;6.140;2023-02-22T12:17:41;95033.84;;;10.99;78.69
21838;BME280;11081;45.946;6.140;2023-02-22T12:20:26;95031.78;;;11.01;78.01
21838;BME280;11081;45.946;6.140;2023-02-22T12:23:02;95036.78;;;11.03;76.62
21838;BME280;11081;45.946;6.140;2023-02-22T12:25:34;95035.53;;;10.93;77.39
21838;BME280;11081;45.946;6.140;2023-02-22T12:28:14;95033.63;;;10.89;78.62
21838;BME280;11081;45.946;6.140;2023-02-22T12:30:54;95024.50;;;10.80;78.37
21838;BME280;11081;45.946;6.140;2023-02-22T12:33:26;95026.47;;;10.84;77.92
21838;BME280;11081;45.946;6.140;2023-02-22T12:35:57;95024.16;;;10.76;77.83
21838;BME280;11081;45.946;6.140;2023-02-22T12:38:30;95023.94;;;10.66;78.63
21838;BME280;11081;45.946;6.140;2023-02-22T12:41:08;95019.47;;;10.55;78.68
21838;BME280;11081;45.946;6.140;2023-02-22T12:43:44;95017.66;;;10.55;79.20
21838;BME280;11081;45.946;6.140;2023-02-22T12:46:17;95010.72;;;10.61;79.29
21838;BME280;11081;45.946;6.140;2023-02-22T12:48:50;95010.53;;;10.74;78.29
21838;BME280;11081;45.946;6.140;2023-02-22T12:51:26;95010.09;;;10.77;78.68
21838;BME280;11081;45.946;6.140;2023-02-22T12:53:58;95006.72;;;10.88;78.05
21838;BME280;11081;45.946;6.140;2023-02-22T12:56:31;95005.34;;;10.97;77.47
21838;BME280;11081;45.946;6.140;2023-02-22T12:59:08;95006.03;;;11.05;77.38
21838;BME280;11081;45.946;6.140;2023-02-22T13:01:41;95008.06;;;11.03;77.90
21838;BME280;11081;45.946;6.140;2023-02-22T13:04:11;95007.63;;;11.06;77.25
21838;BME280;11081;45.946;6.140;2023-02-22T13:07:01;95001.03;;;11.15;77.64
21838;BME280;11081;45.946;6.140;2023-02-22T13:09:49;95000.47;;;11.13;78.01
21838;BME280;11081;45.946;6.140;2023-02-22T13:12:24;95003.75;;;11.20;76.95
21838;BME280;11081;45.946;6.140;2023-02-22T13:15:03;95002.50;;;11.22;77.68
21838;BME280;11081;45.946;6.140;2023-02-22T13:17:41;94998.06;;;11.23;76.88
21838;BME280;11081;45.946;6.140;2023-02-22T13:20:16;94987.19;;;11.26;77.14
21838;BME280;11081;45.946;6.140;2023-02-22T13:22:51;94995.47;;;11.23;76.41
21838;BME280;11081;45.946;6.140;2023-02-22T13:25:26;94990.13;;;11.18;76.19
21838;BME280;11081;45.946;6.140;2023-02-22T13:28:02;94992.06;;;11.11;76.14
21838;BME280;11081;45.946;6.140;2023-02-22T13:30:40;94993.44;;;11.13;77.06
21838;BME280;11081;45.946;6.140;2023-02-22T13:33:23;94991.72;;;11.19;76.92
21838;BME280;11081;45.946;6.140;2023-02-22T13:36:18;94989.66;;;11.21;76.11
21838;BME280;11081;45.946;6.140;2023-02-22T13:42:06;94985.59;;;11.25;75.82